Dangriga, Belize
Current Conditions -  °F | °C
As of 3:00 PM on Saturday 22 Nov 2014 (Local Time) from MZBZ Reporting Station
Broken Clouds Broken Clouds  
Wind Chill: 84°   Ceiling: 2200
Heat Index: 94°   Visibility: 6mi
Dew Point: 77°   Wind: 9mph
Humidity: 79%   Direction: 90°E
Pressure: 29.9"   Gusts: NA
Location:  16.97°N, 88.22°W
Report Text: MZBZ 222100Z 09008KT 9999 BKN022 29/25 A2990 Q1012 NOSIG
Loading
Personal Weather Stations






























Interactive Weather Map New forecast layout! Learn more

10-Day Weather Forecast

Advertisements
Track Severe Weather on mobile